createdAt,value
2023-10-12T00:00:24.247Z,73057.47
2023-10-12T00:01:19.716Z,73051.50
2023-10-12T00:02:16.690Z,73053.50
2023-10-12T00:03:13.702Z,73057.47
2023-10-12T00:04:09.234Z,73053.50
2023-10-12T00:05:03.017Z,73053.50
2023-10-12T00:05:58.518Z,73053.50
2023-10-12T00:06:54.002Z,73045.50
2023-10-12T00:07:51.227Z,73041.50
2023-10-12T00:08:44.269Z,73043.50
2023-10-12T00:09:39.611Z,73049.50
2023-10-12T00:10:42.217Z,73049.50
2023-10-12T00:11:40.501Z,73047.50
2023-10-12T00:12:37.045Z,73045.50
2023-10-12T00:13:30.504Z,73049.50
2023-10-12T00:14:24.208Z,73049.50
2023-10-12T00:15:26.878Z,73049.50
2023-10-12T00:16:20.621Z,73045.50
2023-10-12T00:17:18.088Z,73049.50
2023-10-12T00:18:12.015Z,73045.50
2023-10-12T00:19:04.898Z,73045.50
2023-10-12T00:20:00.254Z,73045.50
2023-10-12T00:20:53.389Z,73041.50
2023-10-12T00:21:46.129Z,73041.50
2023-10-12T00:22:47.496Z,73041.50
2023-10-12T00:23:40.223Z,73033.53
2023-10-12T00:24:35.560Z,73037.53
2023-10-12T00:25:28.337Z,73041.50
2023-10-12T00:26:25.377Z,73039.50
2023-10-12T00:27:22.083Z,73041.50
2023-10-12T00:28:16.430Z,73037.53
2023-10-12T00:29:11.983Z,73037.53
2023-10-12T00:30:05.841Z,73033.53
2023-10-12T00:31:06.981Z,73041.50
2023-10-12T00:32:01.039Z,73037.53
2023-10-12T00:32:55.763Z,73041.50
2023-10-12T00:33:54.041Z,73041.50
2023-10-12T00:34:47.523Z,73037.53
2023-10-12T00:35:41.024Z,73037.53
2023-10-12T00:36:38.677Z,73037.53
2023-10-12T00:37:33.611Z,73039.50
2023-10-12T00:38:30.824Z,73037.53
2023-10-12T00:39:31.315Z,73037.53
2023-10-12T00:40:32.416Z,73037.53
2023-10-12T00:41:26.553Z,73035.53
2023-10-12T00:42:30.514Z,73037.53
2023-10-12T00:43:23.641Z,73037.53
2023-10-12T00:44:20.772Z,73037.53
2023-10-12T00:45:15.563Z,73033.53
2023-10-12T00:46:22.721Z,73037.53
2023-10-12T00:47:30.950Z,73039.50
2023-10-12T00:48:30.853Z,73037.53
2023-10-12T00:49:28.583Z,73037.53
2023-10-12T00:50:21.458Z,73037.53
2023-10-12T00:51:18.012Z,73043.50
2023-10-12T00:52:22.610Z,73041.50
2023-10-12T00:53:23.968Z,73037.53
2023-10-12T00:54:42.333Z,73041.50
2023-10-12T00:55:38.278Z,73037.53
2023-10-12T00:56:33.783Z,73029.53
2023-10-12T00:57:26.733Z,73029.53
2023-10-12T00:58:23.502Z,73029.53
2023-10-12T00:59:18.867Z,73025.53
2023-10-12T01:00:17.071Z,73029.53
2023-10-12T01:01:10.748Z,73025.53
2023-10-12T01:02:09.957Z,73019.56
2023-10-12T01:03:29.085Z,73021.56
2023-10-12T01:04:24.430Z,73021.56
2023-10-12T01:05:19.493Z,73025.53
2023-10-12T01:06:22.640Z,73017.56
2023-10-12T01:07:22.806Z,73017.56
2023-10-12T01:08:20.360Z,73013.56
2023-10-12T01:09:22.465Z,73007.56
2023-10-12T01:10:19.267Z,73013.56
2023-10-12T01:11:19.254Z,73005.56
2023-10-12T01:12:18.877Z,72997.59
2023-10-12T01:13:11.661Z,73005.56
2023-10-12T01:14:16.557Z,73001.59
2023-10-12T01:15:12.863Z,73005.56
2023-10-12T01:16:17.835Z,73005.56
2023-10-12T01:17:17.604Z,73009.56
2023-10-12T01:18:14.409Z,73001.59
2023-10-12T01:19:07.276Z,73001.59
2023-10-12T01:20:12.311Z,73001.59
2023-10-12T01:21:05.043Z,72999.59
2023-10-12T01:22:09.406Z,73003.59
2023-10-12T01:23:02.117Z,72991.59
2023-10-12T01:23:54.852Z,72997.59
2023-10-12T01:24:59.941Z,72993.59
2023-10-12T01:25:52.685Z,72995.59
2023-10-12T01:26:47.969Z,72995.59
2023-10-12T01:27:45.237Z,72991.59
2023-10-12T01:28:39.300Z,72993.59
2023-10-12T01:29:32.596Z,72993.59
2023-10-12T01:30:29.016Z,72995.59
2023-10-12T01:31:29.688Z,72989.59
2023-10-12T01:32:25.480Z,72999.59
2023-10-12T01:33:20.925Z,72993.59
2023-10-12T01:34:15.238Z,72993.59
2023-10-12T01:35:11.950Z,72993.59
2023-10-12T01:36:07.920Z,72993.59
2023-10-12T01:37:04.726Z,72995.59
2023-10-12T01:38:01.991Z,72997.59
2023-10-12T01:39:12.510Z,72993.59
2023-10-12T01:40:13.751Z,72997.59
2023-10-12T01:41:11.474Z,72999.59
2023-10-12T01:42:05.458Z,72993.59
2023-10-12T01:43:02.501Z,72997.59
2023-10-12T01:43:55.662Z,72993.59
2023-10-12T01:44:48.607Z,72997.59
2023-10-12T01:45:49.051Z,72995.59
2023-10-12T01:46:42.539Z,72995.59
2023-10-12T01:47:38.928Z,72997.59
2023-10-12T01:48:35.410Z,72997.59
2023-10-12T01:49:28.176Z,72997.59
2023-10-12T01:50:20.900Z,72997.59
2023-10-12T01:51:25.962Z,72993.59
2023-10-12T01:52:21.400Z,72993.59
2023-10-12T01:53:25.897Z,72995.59
2023-10-12T01:54:26.247Z,73001.59
2023-10-12T01:55:30.037Z,73001.59
2023-10-12T01:56:29.761Z,73001.59
2023-10-12T01:57:31.774Z,72999.59
2023-10-12T01:58:29.469Z,73001.59
2023-10-12T01:59:22.568Z,72997.59
2023-10-12T02:00:17.312Z,73001.59
2023-10-12T02:01:20.424Z,72993.59
2023-10-12T02:02:15.468Z,72997.59
2023-10-12T02:03:19.073Z,73001.59
2023-10-12T02:04:15.105Z,73001.59
2023-10-12T02:05:11.281Z,72991.59
2023-10-12T02:06:06.253Z,73001.59
2023-10-12T02:07:03.900Z,72997.59
2023-10-12T02:08:00.151Z,73001.59
2023-10-12T02:08:57.290Z,73003.59
2023-10-12T02:09:53.709Z,73001.59
2023-10-12T02:10:57.155Z,73005.56
2023-10-12T02:11:55.087Z,73009.56
2023-10-12T02:12:51.474Z,73005.56
2023-10-12T02:13:48.901Z,73013.56
2023-10-12T02:14:44.815Z,73009.56
2023-10-12T02:15:39.247Z,73011.56
2023-10-12T02:16:33.096Z,73017.56
2023-10-12T02:17:36.799Z,73017.56
2023-10-12T02:18:32.194Z,73013.56
2023-10-12T02:19:40.125Z,73011.56
2023-10-12T02:20:36.311Z,73013.56
2023-10-12T02:21:29.296Z,73017.56
2023-10-12T02:22:26.353Z,73015.56
2023-10-12T02:23:23.097Z,73017.56
2023-10-12T02:24:16.170Z,73015.56
2023-10-12T02:25:20.059Z,73017.56
2023-10-12T02:26:29.865Z,73015.56
2023-10-12T02:27:25.922Z,73017.56
2023-10-12T02:28:24.344Z,73017.56
2023-10-12T02:29:19.967Z,73015.56
2023-10-12T02:30:20.099Z,73015.56
2023-10-12T02:31:14.418Z,73009.56
2023-10-12T02:32:24.494Z,73009.56
2023-10-12T02:33:19.850Z,73005.56
2023-10-12T02:34:18.798Z,73013.56
2023-10-12T02:35:16.683Z,73013.56
2023-10-12T02:36:11.279Z,73011.56
2023-10-12T02:37:18.023Z,73013.56
2023-10-12T02:38:17.311Z,73013.56
2023-10-12T02:39:12.597Z,73007.56
2023-10-12T02:40:11.938Z,73013.56
2023-10-12T02:41:05.250Z,73013.56
2023-10-12T02:42:12.288Z,73017.56
2023-10-12T02:43:10.730Z,73013.56
2023-10-12T02:44:13.185Z,73011.56
2023-10-12T02:45:22.779Z,73011.56
2023-10-12T02:46:23.587Z,73011.56
2023-10-12T02:47:19.817Z,73011.56
2023-10-12T02:48:24.890Z,73009.56
2023-10-12T02:49:17.777Z,73011.56
2023-10-12T02:50:28.962Z,73007.56
2023-10-12T02:51:24.314Z,73013.56
2023-10-12T02:52:17.676Z,73013.56
2023-10-12T02:53:13.914Z,73005.56
2023-10-12T02:54:07.134Z,73009.56
2023-10-12T02:55:09.794Z,73007.56
2023-10-12T02:56:05.763Z,73009.56
2023-10-12T02:56:58.524Z,73013.56
2023-10-12T02:57:55.143Z,73013.56
2023-10-12T02:58:50.541Z,73013.56
2023-10-12T02:59:43.277Z,73013.56
2023-10-12T03:00:37.359Z,73013.56
2023-10-12T03:01:32.743Z,73007.56
2023-10-12T03:02:33.793Z,73021.56
2023-10-12T03:03:35.029Z,73019.56
2023-10-12T03:04:30.406Z,73017.56
2023-10-12T03:05:33.847Z,73021.56
2023-10-12T03:06:34.355Z,73017.56
2023-10-12T03:07:27.134Z,73017.56
2023-10-12T03:08:21.302Z,73019.56
2023-10-12T03:09:18.795Z,73021.56
2023-10-12T03:10:25.423Z,73021.56
2023-10-12T03:11:21.649Z,73025.53
2023-10-12T03:12:17.625Z,73021.56
2023-10-12T03:13:21.167Z,73025.53
2023-10-12T03:14:18.008Z,73021.56
2023-10-12T03:15:14.349Z,73021.56
2023-10-12T03:16:14.586Z,73021.56
2023-10-12T03:17:10.769Z,73021.56
2023-10-12T03:18:04.418Z,73013.56
2023-10-12T03:19:02.029Z,73015.56
2023-10-12T03:20:17.017Z,73013.56
2023-10-12T03:21:13.102Z,73017.56
2023-10-12T03:22:21.159Z,73017.56
2023-10-12T03:23:15.305Z,73015.56
2023-10-12T03:24:11.814Z,73017.56
2023-10-12T03:25:21.132Z,73017.56
2023-10-12T03:26:19.690Z,73013.56
2023-10-12T03:27:15.210Z,73017.56
2023-10-12T03:28:14.665Z,73019.56
2023-10-12T03:29:20.161Z,73017.56
2023-10-12T03:30:19.247Z,73019.56
2023-10-12T03:31:24.419Z,73021.56
2023-10-12T03:32:24.740Z,73023.53
2023-10-12T03:33:17.765Z,73025.53
2023-10-12T03:34:31.430Z,73021.56
2023-10-12T03:35:34.737Z,73025.53
2023-10-12T03:36:33.607Z,73021.56
2023-10-12T03:37:41.152Z,73017.56
2023-10-12T03:38:36.679Z,73025.53
2023-10-12T03:39:30.361Z,73023.53
2023-10-12T03:40:38.038Z,73023.53
2023-10-12T03:41:48.099Z,73021.56
2023-10-12T03:42:45.044Z,73023.53
2023-10-12T03:43:41.340Z,73013.56
2023-10-12T03:44:49.537Z,73023.53
2023-10-12T03:46:01.298Z,73017.56
2023-10-12T03:47:06.165Z,73015.56
2023-10-12T03:48:05.789Z,73017.56
2023-10-12T03:49:11.149Z,73017.56
2023-10-12T03:50:08.304Z,73021.56
2023-10-12T03:51:12.875Z,73017.56
2023-10-12T03:52:15.323Z,73017.56
2023-10-12T03:53:08.020Z,73013.56
2023-10-12T03:54:12.652Z,73013.56
2023-10-12T03:55:20.469Z,73013.56
2023-10-12T03:56:15.983Z,73013.56
2023-10-12T03:57:20.688Z,73013.56
2023-10-12T03:58:16.818Z,73015.56
2023-10-12T03:59:13.770Z,73013.56
2023-10-12T04:00:22.964Z,73017.56
2023-10-12T04:01:25.537Z,73021.56
2023-10-12T04:02:18.348Z,73017.56
2023-10-12T04:03:20.250Z,73017.56
2023-10-12T04:04:22.534Z,73009.56
2023-10-12T04:05:17.641Z,73015.56
2023-10-12T04:06:24.988Z,73015.56
2023-10-12T04:07:18.329Z,73011.56
2023-10-12T04:08:20.784Z,73019.56
2023-10-12T04:09:22.819Z,73021.56
2023-10-12T04:10:16.228Z,73017.56
2023-10-12T04:11:36.129Z,73017.56
2023-10-12T04:12:50.519Z,73015.56
2023-10-12T04:13:58.444Z,73017.56
2023-10-12T04:14:57.633Z,73015.56
2023-10-12T04:16:05.223Z,73017.56
2023-10-12T04:17:09.669Z,73013.56
2023-10-12T04:18:08.977Z,73013.56
2023-10-12T04:19:04.809Z,73013.56
2023-10-12T04:20:14.137Z,73015.56
2023-10-12T04:21:06.857Z,73017.56
2023-10-12T04:22:18.224Z,73013.56
2023-10-12T04:23:25.900Z,73015.56
2023-10-12T04:24:29.039Z,73013.56
2023-10-12T04:25:25.487Z,73013.56
2023-10-12T04:26:39.845Z,73017.56
2023-10-12T04:27:43.324Z,73013.56
2023-10-12T04:28:39.262Z,73015.56
2023-10-12T04:29:32.411Z,73009.56
2023-10-12T04:30:35.835Z,73013.56
2023-10-12T04:31:50.853Z,73013.56
2023-10-12T04:32:55.175Z,73015.56
2023-10-12T04:33:57.915Z,73013.56
2023-10-12T04:34:50.964Z,73009.56
2023-10-12T04:36:11.243Z,73013.56
2023-10-12T04:37:09.199Z,73009.56
2023-10-12T04:38:10.144Z,73007.56
2023-10-12T04:39:18.125Z,73011.56
2023-10-12T04:40:33.940Z,73013.56
2023-10-12T04:41:39.679Z,73013.56
2023-10-12T04:42:36.264Z,73009.56
2023-10-12T04:43:31.815Z,73011.56
2023-10-12T04:44:37.363Z,73009.56
2023-10-12T04:45:31.969Z,73015.56
2023-10-12T04:46:28.011Z,73017.56
2023-10-12T04:47:25.764Z,73017.56
2023-10-12T04:48:22.589Z,73021.56
2023-10-12T04:49:30.116Z,73021.56
2023-10-12T04:50:28.868Z,73021.56
2023-10-12T04:51:22.934Z,73021.56
2023-10-12T04:52:26.108Z,73025.53
2023-10-12T04:53:20.145Z,73021.56
2023-10-12T04:54:19.001Z,73025.53
2023-10-12T04:55:30.222Z,73021.56
2023-10-12T04:56:24.970Z,73025.53
2023-10-12T04:57:17.952Z,73025.53
2023-10-12T04:58:32.298Z,73021.56
2023-10-12T04:59:28.583Z,73023.53
2023-10-12T05:00:26.273Z,73017.56
2023-10-12T05:01:25.785Z,73015.56
2023-10-12T05:02:31.171Z,73017.56
2023-10-12T05:03:38.224Z,73021.56
2023-10-12T05:04:36.828Z,73017.56
2023-10-12T05:05:44.680Z,73015.56
2023-10-12T05:06:47.741Z,73013.56
2023-10-12T05:07:55.617Z,73013.56
2023-10-12T05:08:56.033Z,73015.56
2023-10-12T05:09:50.647Z,73017.56
2023-10-12T05:10:48.110Z,73015.56
2023-10-12T05:11:43.430Z,73015.56
2023-10-12T05:12:36.137Z,73013.56
2023-10-12T05:13:34.641Z,73017.56
2023-10-12T05:14:27.462Z,73017.56
2023-10-12T05:15:21.970Z,73017.56
2023-10-12T05:16:18.704Z,73017.56
2023-10-12T05:17:11.632Z,73017.56
2023-10-12T05:18:06.355Z,73021.56
2023-10-12T05:19:01.729Z,73019.56
2023-10-12T05:19:54.507Z,73017.56
2023-10-12T05:20:47.228Z,73017.56
2023-10-12T05:21:43.068Z,73021.56
2023-10-12T05:22:36.637Z,73017.56
2023-10-12T05:23:30.755Z,73017.56
2023-10-12T05:24:26.414Z,73017.56
2023-10-12T05:25:19.421Z,73011.56
2023-10-12T05:26:12.187Z,73015.56
2023-10-12T05:27:21.276Z,73017.56
2023-10-12T05:28:15.497Z,73015.56
2023-10-12T05:29:35.585Z,73021.56
2023-10-12T05:30:28.601Z,73021.56
2023-10-12T05:31:29.610Z,73023.53
2023-10-12T05:32:38.264Z,73027.53
2023-10-12T05:33:39.717Z,73031.53
2023-10-12T05:34:46.393Z,73031.53
2023-10-12T05:35:54.187Z,73033.53
2023-10-12T05:36:47.056Z,73041.50
2023-10-12T05:37:49.734Z,73033.53
2023-10-12T05:38:50.103Z,73037.53
2023-10-12T05:39:48.699Z,73041.50
2023-10-12T05:40:45.788Z,73037.53
2023-10-12T05:41:38.526Z,73041.50
2023-10-12T05:42:40.867Z,73045.50
2023-10-12T05:43:35.104Z,73045.50
2023-10-12T05:44:33.027Z,73041.50
2023-10-12T05:45:32.719Z,73043.50
2023-10-12T05:46:30.813Z,73045.50
2023-10-12T05:47:31.532Z,73041.50
2023-10-12T05:48:24.370Z,73045.50
2023-10-12T05:49:17.776Z,73043.50
2023-10-12T05:50:16.887Z,73045.50
2023-10-12T05:51:11.536Z,73049.50
2023-10-12T05:52:08.757Z,73049.50
2023-10-12T05:53:01.572Z,73051.50
2023-10-12T05:54:03.418Z,73053.50
2023-10-12T05:54:59.790Z,73053.50
2023-10-12T05:55:58.190Z,73053.50
2023-10-12T05:56:51.277Z,73053.50
2023-10-12T05:57:46.615Z,73055.47
2023-10-12T05:58:39.807Z,73057.47
2023-10-12T05:59:39.903Z,73057.47
2023-10-12T06:00:37.417Z,73057.47
2023-10-12T06:02:33.620Z,73059.47
2023-10-12T06:03:29.199Z,73063.47
2023-10-12T06:04:22.958Z,73065.47
2023-10-12T06:05:18.852Z,73063.47
2023-10-12T06:06:11.908Z,73067.47
2023-10-12T06:07:07.338Z,73065.47
2023-10-12T06:08:02.316Z,73065.47
2023-10-12T06:08:55.002Z,73073.44
2023-10-12T06:09:54.657Z,73069.47
2023-10-12T06:10:47.586Z,73069.47
2023-10-12T06:11:45.800Z,73073.44
2023-10-12T06:12:40.424Z,73069.47
2023-10-12T06:13:42.716Z,73071.44
2023-10-12T06:14:39.615Z,73069.47
2023-10-12T06:15:41.561Z,73065.47
2023-10-12T06:16:41.453Z,73069.47
2023-10-12T06:17:41.229Z,73067.47
2023-10-12T06:18:38.962Z,73067.47
2023-10-12T06:19:36.361Z,73065.47
2023-10-12T06:20:32.289Z,73069.47
2023-10-12T06:21:27.695Z,73069.47
2023-10-12T06:22:21.621Z,73065.47
2023-10-12T06:23:18.101Z,73065.47
2023-10-12T06:24:12.981Z,73065.47
2023-10-12T06:25:12.230Z,73073.44
2023-10-12T06:26:08.516Z,73067.47
2023-10-12T06:27:04.086Z,73067.47
2023-10-12T06:28:04.040Z,73073.44
2023-10-12T06:29:00.581Z,73077.44
2023-10-12T06:29:56.751Z,73081.44
2023-10-12T06:30:53.618Z,73081.44
2023-10-12T06:31:53.460Z,73085.44
2023-10-12T06:32:50.357Z,73085.44
2023-10-12T06:33:43.639Z,73079.44
2023-10-12T06:34:37.207Z,73077.44
2023-10-12T06:35:35.535Z,73081.44
2023-10-12T06:36:38.681Z,73081.44
2023-10-12T06:37:46.493Z,73081.44
2023-10-12T06:38:49.198Z,73085.44
2023-10-12T06:39:56.763Z,73085.44
2023-10-12T06:40:50.190Z,73085.44
2023-10-12T06:41:57.742Z,73089.41
2023-10-12T06:43:10.613Z,73081.44
2023-10-12T06:44:15.006Z,73083.44
2023-10-12T06:45:11.100Z,73085.44
2023-10-12T06:46:05.789Z,73089.41
2023-10-12T06:46:59.080Z,73089.41
2023-10-12T06:48:10.684Z,73089.41
2023-10-12T06:49:04.701Z,73089.41
2023-10-12T06:50:01.634Z,73091.41
2023-10-12T06:51:04.321Z,73095.41
2023-10-12T06:52:02.438Z,73085.44
2023-10-12T06:52:59.770Z,73089.41
2023-10-12T06:53:53.825Z,73091.41
2023-10-12T06:54:51.058Z,73093.41
2023-10-12T06:55:58.363Z,73097.41
2023-10-12T06:56:52.963Z,73097.41
2023-10-12T06:57:45.690Z,73097.41
2023-10-12T06:58:41.018Z,73099.41
2023-10-12T06:59:36.502Z,73099.41
2023-10-12T07:00:35.815Z,73099.41
2023-10-12T07:01:33.659Z,73105.38
2023-10-12T07:02:29.274Z,73101.41
2023-10-12T07:03:23.854Z,73103.38
2023-10-12T07:04:17.294Z,73105.38
2023-10-12T07:05:12.780Z,73101.41
2023-10-12T07:06:07.679Z,73101.41
2023-10-12T07:07:02.211Z,73105.38
2023-10-12T07:07:59.520Z,73101.41
2023-10-12T07:08:52.712Z,73103.38
2023-10-12T07:09:47.943Z,73103.38
2023-10-12T07:10:52.911Z,73107.38
2023-10-12T07:11:47.308Z,73109.38
2023-10-12T07:12:50.286Z,73109.38
2023-10-12T07:13:43.065Z,73109.38
2023-10-12T07:14:40.267Z,73105.38
2023-10-12T07:15:42.034Z,73107.38
2023-10-12T07:16:41.968Z,73105.38
2023-10-12T07:17:37.447Z,73107.38
2023-10-12T07:18:30.189Z,73105.38
2023-10-12T07:19:26.177Z,73109.38
2023-10-12T07:20:29.260Z,73109.38
2023-10-12T07:21:24.861Z,73111.38
2023-10-12T07:22:20.163Z,73109.38
2023-10-12T07:23:35.396Z,73113.38
2023-10-12T07:24:28.757Z,73109.38
2023-10-12T07:25:25.014Z,73113.38
2023-10-12T07:26:17.791Z,73117.38
2023-10-12T07:27:19.798Z,73113.38
2023-10-12T07:28:19.769Z,73115.38
2023-10-12T07:29:20.741Z,73115.38
2023-10-12T07:30:32.087Z,73113.38
2023-10-12T07:31:42.887Z,73109.38
2023-10-12T07:32:40.084Z,73111.38
2023-10-12T07:33:35.702Z,73109.38
2023-10-12T07:34:32.911Z,73105.38
2023-10-12T07:35:36.271Z,73109.38
2023-10-12T07:36:50.080Z,73105.38
2023-10-12T07:37:45.580Z,73109.38
2023-10-12T07:38:38.299Z,73105.38
2023-10-12T07:39:40.144Z,73105.38
2023-10-12T07:40:42.452Z,73105.38
2023-10-12T07:41:42.708Z,73109.38
2023-10-12T07:42:37.823Z,73105.38
2023-10-12T07:43:36.639Z,73109.38
2023-10-12T07:44:30.299Z,73109.38
2023-10-12T07:45:29.534Z,73113.38
2023-10-12T07:46:26.820Z,73107.38
2023-10-12T07:47:33.179Z,73113.38
2023-10-12T07:48:31.909Z,73113.38
2023-10-12T07:49:38.995Z,73109.38
2023-10-12T07:50:39.138Z,73109.38
2023-10-12T07:51:52.164Z,73113.38
2023-10-12T07:52:55.079Z,73111.38
2023-10-12T07:53:51.144Z,73113.38
2023-10-12T07:55:00.940Z,73113.38
2023-10-12T07:56:02.018Z,73109.38
2023-10-12T07:56:55.189Z,73113.38
2023-10-12T07:57:50.745Z,73109.38
2023-10-12T07:58:44.328Z,73109.38
2023-10-12T07:59:40.032Z,73105.38
2023-10-12T08:00:42.906Z,73105.38
2023-10-12T08:01:48.509Z,73101.41
2023-10-12T08:02:59.137Z,73109.38
2023-10-12T08:03:59.954Z,73109.38
2023-10-12T08:04:59.503Z,73109.38
2023-10-12T08:05:58.412Z,73105.38
2023-10-12T08:06:51.538Z,73109.38
2023-10-12T08:08:08.898Z,73105.38
2023-10-12T08:09:06.514Z,73109.38
2023-10-12T08:10:11.313Z,73105.38
2023-10-12T08:11:13.035Z,73115.38
2023-10-12T08:12:25.585Z,73111.38
2023-10-12T08:13:27.886Z,73117.38
2023-10-12T08:14:40.798Z,73117.38
2023-10-12T08:15:51.305Z,73113.38
2023-10-12T08:17:02.178Z,73117.38
2023-10-12T08:18:14.380Z,73115.38
2023-10-12T08:19:22.110Z,73113.38
2023-10-12T08:20:29.740Z,73113.38
2023-10-12T08:21:25.638Z,73111.38
2023-10-12T08:22:27.526Z,73109.38
2023-10-12T08:23:20.250Z,73111.38
2023-10-12T08:24:24.082Z,73109.38
2023-10-12T08:25:29.131Z,73109.38
2023-10-12T08:26:36.631Z,73109.38
2023-10-12T08:27:44.841Z,73109.38
2023-10-12T08:28:39.096Z,73109.38
2023-10-12T08:29:46.814Z,73103.38
2023-10-12T08:30:50.003Z,73107.38
2023-10-12T08:31:45.130Z,73103.38
2023-10-12T08:32:57.352Z,73103.38
2023-10-12T08:33:59.715Z,73101.41
2023-10-12T08:35:07.523Z,73105.38
2023-10-12T08:36:24.852Z,73101.41
2023-10-12T08:37:20.535Z,73095.41
2023-10-12T08:38:16.662Z,73099.41
2023-10-12T08:39:10.303Z,73097.41
2023-10-12T08:40:09.588Z,73105.38
2023-10-12T08:41:43.770Z,73099.41
2023-10-12T08:42:55.673Z,73105.38
2023-10-12T08:43:57.656Z,73105.38
2023-10-12T08:44:54.999Z,73101.41
2023-10-12T08:45:47.857Z,73101.41
2023-10-12T08:46:53.413Z,73097.41
2023-10-12T08:47:50.166Z,73105.38
2023-10-12T08:48:54.478Z,73103.38
2023-10-12T08:49:54.433Z,73097.41
2023-10-12T08:50:59.761Z,73101.41
2023-10-12T08:52:09.630Z,73105.38
2023-10-12T08:53:05.360Z,73103.38
2023-10-12T08:54:02.052Z,73105.38
2023-10-12T08:55:05.199Z,73101.41
2023-10-12T08:55:58.088Z,73105.38
2023-10-12T08:56:54.579Z,73103.38
2023-10-12T08:57:56.611Z,73101.41
2023-10-12T08:58:53.018Z,73101.41
2023-10-12T09:00:10.484Z,73101.41
2023-10-12T09:01:14.524Z,73097.41
2023-10-12T09:02:20.451Z,73103.38
2023-10-12T09:03:26.379Z,73105.38
2023-10-12T09:04:28.689Z,73105.38
2023-10-12T09:05:26.782Z,73109.38
2023-10-12T09:06:38.177Z,73107.38
2023-10-12T09:07:42.001Z,73105.38
2023-10-12T09:08:40.886Z,73099.41
2023-10-12T09:09:48.638Z,73105.38
2023-10-12T09:10:56.810Z,73109.38
2023-10-12T09:12:01.554Z,73105.38
2023-10-12T09:12:55.153Z,73101.41
2023-10-12T09:13:50.491Z,73101.41
2023-10-12T09:14:46.682Z,73105.38
2023-10-12T09:15:47.560Z,73101.41
2023-10-12T09:16:45.274Z,73105.38
2023-10-12T09:17:42.510Z,73099.41
2023-10-12T09:18:45.275Z,73101.41
2023-10-12T09:19:46.272Z,73105.38
2023-10-12T09:20:42.480Z,73107.38
2023-10-12T09:21:43.649Z,73109.38
2023-10-12T09:22:36.996Z,73101.41
2023-10-12T09:23:40.419Z,73105.38
2023-10-12T09:24:38.223Z,73101.41
2023-10-12T09:26:03.367Z,73101.41
2023-10-12T09:27:02.880Z,73101.41
2023-10-12T09:27:58.218Z,73099.41
2023-10-12T09:29:08.872Z,73101.41
2023-10-12T09:30:05.427Z,73099.41
2023-10-12T09:31:01.745Z,73095.41
2023-10-12T09:32:13.273Z,73095.41
2023-10-12T09:33:12.823Z,73095.41
2023-10-12T09:34:33.106Z,73097.41
2023-10-12T09:35:35.354Z,73099.41
2023-10-12T09:36:30.685Z,73097.41
2023-10-12T09:37:30.303Z,73099.41
2023-10-12T09:38:23.105Z,73101.41
2023-10-12T09:39:16.378Z,73097.41
2023-10-12T09:40:26.004Z,73097.41
2023-10-12T09:41:27.161Z,73093.41
2023-10-12T09:42:31.738Z,73097.41
2023-10-12T09:43:26.648Z,73093.41
2023-10-12T09:44:27.379Z,73093.41
2023-10-12T09:45:33.735Z,73093.41
2023-10-12T09:46:29.341Z,73097.41
2023-10-12T09:47:27.232Z,73097.41
2023-10-12T09:48:30.759Z,73091.41
2023-10-12T09:49:28.901Z,73097.41
2023-10-12T09:50:28.779Z,73097.41
2023-10-12T09:51:21.794Z,73101.41
2023-10-12T09:52:23.174Z,73101.41
2023-10-12T09:53:23.632Z,73099.41
2023-10-12T09:54:29.243Z,73097.41
2023-10-12T09:55:26.775Z,73103.38
2023-10-12T09:56:26.243Z,73101.41
2023-10-12T09:57:24.734Z,73097.41
2023-10-12T09:58:23.729Z,73101.41
2023-10-12T09:59:22.247Z,73097.41
2023-10-12T10:00:29.409Z,73097.41
2023-10-12T10:01:46.780Z,73095.41
2023-10-12T10:02:43.700Z,73097.41
2023-10-12T10:03:39.170Z,73103.38
2023-10-12T10:04:36.617Z,73101.41
2023-10-12T10:05:51.857Z,73097.41
2023-10-12T10:06:53.077Z,73101.41
2023-10-12T10:07:54.521Z,73101.41
2023-10-12T10:09:03.347Z,73097.41
2023-10-12T10:10:00.465Z,73093.41
2023-10-12T10:10:58.882Z,73101.41
2023-10-12T10:12:01.369Z,73097.41
2023-10-12T10:12:56.692Z,73099.41
2023-10-12T10:13:54.381Z,73097.41
2023-10-12T10:14:48.829Z,73097.41
2023-10-12T10:15:57.282Z,73101.41
2023-10-12T10:16:59.509Z,73097.41
2023-10-12T10:17:57.792Z,73103.38
2023-10-12T10:18:58.286Z,73103.38
2023-10-12T10:20:13.410Z,73105.38
2023-10-12T10:21:09.476Z,73107.38
2023-10-12T10:22:09.402Z,73107.38
2023-10-12T10:23:13.552Z,73109.38
2023-10-12T10:24:13.697Z,73105.38
2023-10-12T10:25:18.809Z,73113.38
2023-10-12T10:26:18.335Z,73107.38
2023-10-12T10:27:12.317Z,73103.38
2023-10-12T10:28:11.901Z,73105.38
2023-10-12T10:29:06.629Z,73099.41
2023-10-12T10:29:59.785Z,73101.41
2023-10-12T10:31:01.352Z,73101.41
2023-10-12T10:31:54.435Z,73101.41
2023-10-12T10:33:10.500Z,73099.41
2023-10-12T10:34:08.220Z,73097.41
2023-10-12T10:35:07.333Z,73097.41
2023-10-12T10:36:02.105Z,73089.41
2023-10-12T10:36:59.123Z,73097.41
2023-10-12T10:37:59.732Z,73089.41
2023-10-12T10:38:57.976Z,73089.41
2023-10-12T10:39:50.873Z,73089.41
2023-10-12T10:40:47.132Z,73093.41
2023-10-12T10:41:47.608Z,73089.41
2023-10-12T10:42:46.326Z,73081.44
2023-10-12T10:43:41.958Z,73081.44
2023-10-12T10:44:38.127Z,73085.44
2023-10-12T10:45:30.841Z,73083.44
2023-10-12T10:46:28.562Z,73085.44
2023-10-12T10:47:27.437Z,73087.41
2023-10-12T10:48:51.717Z,73081.44
2023-10-12T10:49:35.880Z,73073.44
2023-10-12T10:50:34.966Z,73075.44
2023-10-12T10:51:29.526Z,73079.44
2023-10-12T10:52:27.753Z,73081.44
2023-10-12T10:53:21.471Z,73077.44
2023-10-12T10:54:20.387Z,73073.44
2023-10-12T10:55:25.526Z,73077.44
2023-10-12T10:56:18.291Z,73071.44
2023-10-12T10:57:17.214Z,73073.44
2023-10-12T10:58:15.892Z,73073.44
2023-10-12T10:59:13.702Z,73073.44
2023-10-12T11:00:16.490Z,73069.47
2023-10-12T11:01:14.096Z,73073.44
2023-10-12T11:02:12.999Z,73075.44
2023-10-12T11:03:06.340Z,73069.47
2023-10-12T11:04:03.116Z,73069.47
2023-10-12T11:04:58.960Z,73067.47
2023-10-12T11:05:54.821Z,73069.47
2023-10-12T11:06:48.787Z,73069.47
2023-10-12T11:07:52.307Z,73057.47
2023-10-12T11:08:54.629Z,73065.47
2023-10-12T11:10:07.204Z,73053.50
2023-10-12T11:11:15.144Z,73053.50
2023-10-12T11:12:11.388Z,73055.47
2023-10-12T11:13:06.571Z,73057.47
2023-10-12T11:14:00.724Z,73057.47
2023-10-12T11:14:59.897Z,73053.50
2023-10-12T11:15:56.677Z,73057.47
2023-10-12T11:16:50.034Z,73053.50
2023-10-12T11:17:57.863Z,73053.50
2023-10-12T11:18:53.466Z,73053.50
2023-10-12T11:19:51.198Z,73057.47
2023-10-12T11:20:46.780Z,73051.50
2023-10-12T11:21:47.302Z,73045.50
2023-10-12T11:22:40.046Z,73045.50
2023-10-12T11:23:35.335Z,73049.50
2023-10-12T11:24:28.446Z,73041.50
2023-10-12T11:25:24.181Z,73049.50
2023-10-12T11:26:22.615Z,73037.53
2023-10-12T11:27:30.240Z,73037.53
2023-10-12T11:28:27.889Z,73037.53
2023-10-12T11:29:20.826Z,73041.50
2023-10-12T11:30:20.733Z,73041.50
2023-10-12T11:31:22.139Z,73041.50
2023-10-12T11:32:17.971Z,73041.50
2023-10-12T11:33:11.012Z,73045.50
2023-10-12T11:34:08.727Z,73045.50
2023-10-12T11:35:08.075Z,73045.50
2023-10-12T11:36:05.338Z,73049.50
2023-10-12T11:36:59.356Z,73049.50
2023-10-12T11:37:59.199Z,73047.50
2023-10-12T11:38:59.870Z,73051.50
2023-10-12T11:39:55.861Z,73047.50